createdAt,value
2023-04-18T00:01:21.421Z,171.00
2023-04-18T00:03:50.626Z,182.33
2023-04-18T00:06:19.357Z,193.83
2023-04-18T00:08:47.382Z,192.90
2023-04-18T00:11:15.393Z,198.70
2023-04-18T00:13:43.362Z,196.90
2023-04-18T00:16:13.284Z,191.50
2023-04-18T00:18:42.748Z,176.83
2023-04-18T00:21:10.815Z,181.40
2023-04-18T00:23:39.743Z,192.57
2023-04-18T00:26:07.805Z,195.13
2023-04-18T00:28:35.916Z,189.97
2023-04-18T00:31:04.269Z,190.60
2023-04-18T00:33:32.572Z,190.23
2023-04-18T00:36:02.217Z,199.40
2023-04-18T00:38:30.370Z,183.50
2023-04-18T00:40:58.669Z,190.90
2023-04-18T00:43:26.982Z,191.47
2023-04-18T00:45:57.082Z,188.90
2023-04-18T00:48:25.715Z,195.63
2023-04-18T00:50:54.879Z,192.67
2023-04-18T00:53:24.889Z,196.13
2023-04-18T00:55:53.528Z,200.10
2023-04-18T00:58:21.910Z,189.67
2023-04-18T01:00:50.176Z,191.50
2023-04-18T01:03:19.851Z,194.73
2023-04-18T01:05:48.137Z,196.70
2023-04-18T01:08:16.833Z,196.23
2023-04-18T01:10:46.716Z,201.17
2023-04-18T01:13:16.128Z,194.23
2023-04-18T01:15:45.514Z,194.90
2023-04-18T01:18:17.200Z,198.93
2023-04-18T01:20:47.760Z,194.07
2023-04-18T01:23:17.056Z,193.60
2023-04-18T01:25:47.661Z,195.73
2023-04-18T01:28:16.041Z,196.40
2023-04-18T01:30:44.197Z,198.83
2023-04-18T01:33:12.362Z,195.20
2023-04-18T01:35:40.454Z,197.07
2023-04-18T01:38:10.265Z,197.30
2023-04-18T01:40:38.446Z,194.20
2023-04-18T01:43:07.902Z,194.57
2023-04-18T01:45:35.963Z,207.63
2023-04-18T01:48:04.107Z,201.57
2023-04-18T01:50:32.368Z,200.63
2023-04-18T01:53:00.423Z,196.40
2023-04-18T01:55:28.401Z,197.73
2023-04-18T01:57:56.537Z,195.03
2023-04-18T02:00:26.256Z,196.00
2023-04-18T02:02:54.549Z,201.83
2023-04-18T02:05:22.739Z,201.27
2023-04-18T02:07:50.719Z,199.10
2023-04-18T02:10:18.977Z,200.83
2023-04-18T02:12:47.081Z,200.70
2023-04-18T02:15:15.121Z,201.23
2023-04-18T02:17:45.641Z,201.37
2023-04-18T02:20:15.752Z,200.07
2023-04-18T02:22:44.661Z,199.77
2023-04-18T02:25:12.647Z,198.07
2023-04-18T02:27:40.908Z,202.30
2023-04-18T02:30:09.841Z,199.87
2023-04-18T02:32:38.004Z,194.63
2023-04-18T02:35:08.361Z,202.77
2023-04-18T02:37:36.317Z,204.70
2023-04-18T02:40:05.681Z,202.63
2023-04-18T02:42:33.753Z,202.93
2023-04-18T02:45:01.795Z,198.37
2023-04-18T02:47:33.304Z,199.73
2023-04-18T02:50:03.530Z,204.03
2023-04-18T02:52:32.910Z,200.73
2023-04-18T02:55:00.871Z,202.30
2023-04-18T02:57:28.863Z,201.30
2023-04-18T02:59:56.863Z,198.17
2023-04-18T03:02:25.092Z,201.90
2023-04-18T03:04:53.220Z,201.10
2023-04-18T03:07:21.265Z,204.43
2023-04-18T03:09:52.181Z,206.27
2023-04-18T03:12:20.332Z,198.40
2023-04-18T03:14:48.425Z,202.97
2023-04-18T03:17:16.524Z,205.13
2023-04-18T03:19:44.966Z,199.80
2023-04-18T03:22:14.002Z,200.60
2023-04-18T03:24:42.063Z,204.10
2023-04-18T03:27:11.498Z,199.13
2023-04-18T03:29:39.637Z,203.90
2023-04-18T03:32:07.635Z,199.17
2023-04-18T03:34:36.094Z,201.00
2023-04-18T03:37:04.093Z,200.87
2023-04-18T03:39:32.029Z,154.70
2023-04-18T03:41:59.993Z,152.60
2023-04-18T03:44:29.330Z,152.47
2023-04-18T03:46:57.396Z,151.33
2023-04-18T03:49:25.429Z,147.43
2023-04-18T03:51:53.393Z,161.57
2023-04-18T03:54:21.449Z,152.40
2023-04-18T03:56:49.592Z,167.53
2023-04-18T03:59:17.671Z,149.67
2023-04-18T04:01:47.456Z,159.13
2023-04-18T04:04:16.062Z,158.20
2023-04-18T04:06:44.476Z,154.87
2023-04-18T04:09:12.473Z,152.90
2023-04-18T04:11:40.715Z,156.67
2023-04-18T04:14:08.693Z,164.10
2023-04-18T04:16:36.807Z,166.40
2023-04-18T04:19:06.208Z,163.20
2023-04-18T04:21:34.220Z,166.83
2023-04-18T04:24:02.755Z,161.93
2023-04-18T04:26:31.733Z,165.97
2023-04-18T04:28:59.805Z,163.13
2023-04-18T04:31:28.765Z,165.17
2023-04-18T04:33:56.765Z,163.53
2023-04-18T04:36:27.269Z,165.07
2023-04-18T04:38:55.451Z,169.00
2023-04-18T04:41:24.533Z,163.83
2023-04-18T04:43:53.150Z,164.03
2023-04-18T04:46:21.375Z,165.60
2023-04-18T04:48:49.674Z,170.03
2023-04-18T04:51:17.691Z,167.27
2023-04-18T04:53:47.137Z,162.93
2023-04-18T04:56:16.827Z,167.77
2023-04-18T04:58:45.204Z,167.60
2023-04-18T05:01:13.247Z,164.53
2023-04-18T05:03:41.413Z,164.37
2023-04-18T05:06:09.715Z,170.40
2023-04-18T05:08:37.770Z,174.90
2023-04-18T05:11:07.243Z,171.07
2023-04-18T05:13:35.287Z,180.83
2023-04-18T05:16:03.316Z,165.97
2023-04-18T05:18:33.075Z,172.67
2023-04-18T05:21:02.951Z,187.30
2023-04-18T05:23:31.404Z,172.23
2023-04-18T05:25:59.506Z,169.53
2023-04-18T05:28:29.033Z,170.37
2023-04-18T05:31:01.352Z,179.30
2023-04-18T05:33:29.796Z,170.67
2023-04-18T05:35:58.557Z,170.43
2023-04-18T05:38:26.992Z,172.07
2023-04-18T05:40:55.695Z,173.27
2023-04-18T05:43:24.545Z,181.03
2023-04-18T05:45:54.787Z,179.70
2023-04-18T05:48:25.154Z,172.60
2023-04-18T05:50:53.248Z,164.87
2023-04-18T05:53:21.410Z,165.03
2023-04-18T05:55:50.184Z,169.27
2023-04-18T05:58:18.159Z,172.70
2023-04-18T06:00:48.050Z,175.93
2023-04-18T06:03:17.590Z,169.97
2023-04-18T06:05:46.142Z,180.57
2023-04-18T06:08:14.237Z,169.23
2023-04-18T06:10:42.210Z,169.77
2023-04-18T06:13:10.247Z,164.73
2023-04-18T06:15:38.371Z,182.70
2023-04-18T06:18:06.772Z,163.57
2023-04-18T06:20:36.198Z,179.13
2023-04-18T06:23:04.127Z,189.97
2023-04-18T06:25:32.195Z,183.37
2023-04-18T06:28:01.938Z,194.17
2023-04-18T06:30:30.106Z,217.37
2023-04-18T06:32:58.268Z,209.90
2023-04-18T06:35:26.792Z,208.03
2023-04-18T06:37:56.284Z,208.43
2023-04-18T06:40:24.432Z,213.73
2023-04-18T06:42:52.488Z,226.53
2023-04-18T06:45:20.901Z,228.10
2023-04-18T06:47:49.771Z,239.73
2023-04-18T06:50:18.331Z,244.73
2023-04-18T06:52:46.352Z,246.93
2023-04-18T06:55:15.833Z,247.37
2023-04-18T06:57:44.737Z,247.53
2023-04-18T07:00:13.512Z,250.80
2023-04-18T07:02:42.231Z,260.00
2023-04-18T07:05:10.904Z,261.30
2023-04-18T07:07:39.520Z,260.33
2023-04-18T07:10:09.834Z,259.23
2023-04-18T07:12:39.318Z,260.27
2023-04-18T07:15:08.504Z,260.33
2023-04-18T07:17:37.044Z,261.53
2023-04-18T07:20:05.769Z,258.20
2023-04-18T07:22:33.788Z,255.27
2023-04-18T07:25:01.798Z,257.20
2023-04-18T07:27:29.763Z,259.13
2023-04-18T07:29:59.157Z,255.57
2023-04-18T07:32:27.195Z,250.60
2023-04-18T07:34:55.441Z,261.87
2023-04-18T07:37:23.489Z,260.70
2023-04-18T07:39:52.629Z,268.13
2023-04-18T07:42:20.652Z,264.23
2023-04-18T07:44:49.512Z,265.23
2023-04-18T07:47:22.266Z,265.27
2023-04-18T07:49:50.731Z,283.03
2023-04-18T07:52:19.004Z,298.87
2023-04-18T07:54:47.101Z,297.90
2023-04-18T07:57:15.118Z,299.60
2023-04-18T07:59:45.184Z,301.50
2023-04-18T08:02:13.301Z,301.37
2023-04-18T08:04:42.849Z,301.70
2023-04-18T08:07:11.187Z,303.03
2023-04-18T08:09:39.181Z,298.43
2023-04-18T08:12:07.447Z,301.63
2023-04-18T08:14:35.569Z,298.83
2023-04-18T08:17:03.741Z,296.90
2023-04-18T08:19:32.945Z,298.97
2023-04-18T08:22:11.084Z,298.73
2023-04-18T08:24:41.671Z,300.07
2023-04-18T08:27:14.481Z,295.70
2023-04-18T08:29:42.583Z,296.43
2023-04-18T08:32:11.230Z,297.93
2023-04-18T08:34:39.498Z,302.03
2023-04-18T08:37:08.952Z,302.07
2023-04-18T08:39:36.967Z,301.40
2023-04-18T08:42:07.590Z,302.93
2023-04-18T08:44:35.837Z,304.80
2023-04-18T08:47:03.861Z,303.23
2023-04-18T08:49:32.305Z,304.33
2023-04-18T08:52:02.570Z,307.50
2023-04-18T08:54:32.749Z,305.87
2023-04-18T08:57:07.425Z,305.50
2023-04-18T08:59:35.841Z,301.87
2023-04-18T09:02:05.395Z,308.40
2023-04-18T09:04:35.458Z,317.83
2023-04-18T09:07:04.296Z,318.33
2023-04-18T09:09:47.696Z,317.07
2023-04-18T09:12:18.327Z,318.60
2023-04-18T09:14:48.016Z,324.30
2023-04-18T09:17:18.240Z,324.77
2023-04-18T09:19:50.286Z,329.33
2023-04-18T09:22:18.939Z,326.90
2023-04-18T09:24:54.264Z,332.20
2023-04-18T09:27:23.358Z,337.20
2023-04-18T09:29:52.620Z,337.40
2023-04-18T09:32:24.957Z,334.03
2023-04-18T09:34:58.270Z,335.23
2023-04-18T09:37:27.354Z,340.37
2023-04-18T09:39:57.350Z,334.90
2023-04-18T09:42:28.169Z,337.93
2023-04-18T09:45:02.423Z,339.13
2023-04-18T09:47:30.898Z,338.20
2023-04-18T09:49:59.160Z,339.80
2023-04-18T09:52:27.197Z,344.17
2023-04-18T09:55:01.321Z,346.23
2023-04-18T09:57:31.026Z,350.03
2023-04-18T10:00:10.636Z,354.70
2023-04-18T10:02:55.931Z,352.37
2023-04-18T10:05:26.867Z,350.17
2023-04-18T10:07:55.972Z,357.90
2023-04-18T10:10:25.977Z,351.43
2023-04-18T10:12:56.119Z,354.17
2023-04-18T10:15:25.530Z,356.00
2023-04-18T10:18:04.608Z,357.00
2023-04-18T10:20:35.824Z,356.73
2023-04-18T10:23:38.278Z,359.85
2023-04-18T10:26:08.164Z,359.33
2023-04-18T10:28:54.505Z,363.27
2023-04-18T10:31:23.834Z,362.90
2023-04-18T10:36:28.181Z,368.55
2023-04-18T10:39:00.928Z,366.77
2023-04-18T10:41:31.034Z,367.67
2023-04-18T10:44:19.513Z,367.88
2023-04-18T10:47:32.864Z,366.48
2023-04-18T10:50:06.132Z,367.40
2023-04-18T10:52:35.076Z,369.10
2023-04-18T10:55:25.275Z,362.40
2023-04-18T10:57:56.525Z,363.08
2023-04-18T11:00:24.947Z,364.97
2023-04-18T11:02:59.214Z,363.43
2023-04-18T11:05:28.936Z,364.45
2023-04-18T11:07:57.090Z,366.47
2023-04-18T11:10:26.586Z,379.85
2023-04-18T11:12:56.382Z,371.43
2023-04-18T11:15:26.291Z,368.48
2023-04-18T11:17:59.672Z,371.17
2023-04-18T11:20:28.330Z,368.33
2023-04-18T11:22:58.201Z,373.75
2023-04-18T11:25:28.254Z,376.27
2023-04-18T11:28:00.897Z,374.50
2023-04-18T11:30:31.330Z,375.95
2023-04-18T11:32:59.355Z,380.73
2023-04-18T11:35:27.839Z,379.15
2023-04-18T11:37:56.194Z,375.35
2023-04-18T11:40:24.444Z,375.50
2023-04-18T11:42:55.440Z,380.33
2023-04-18T11:45:24.767Z,378.65
2023-04-18T11:47:58.068Z,377.55
2023-04-18T11:50:26.662Z,377.38
2023-04-18T11:52:55.856Z,376.52
2023-04-18T11:55:27.125Z,378.85
2023-04-18T11:57:56.413Z,375.27
2023-04-18T12:00:35.257Z,372.25
2023-04-18T12:03:05.295Z,372.90
2023-04-18T12:05:35.090Z,374.83
2023-04-18T12:08:11.281Z,370.65
2023-04-18T12:10:39.989Z,372.67
2023-04-18T12:13:09.385Z,378.85
2023-04-18T12:15:41.488Z,380.90
2023-04-18T12:18:09.641Z,376.60
2023-04-18T12:20:38.814Z,378.38
2023-04-18T12:23:07.976Z,376.75
2023-04-18T12:25:36.553Z,379.77
2023-04-18T12:28:14.774Z,380.83
2023-04-18T12:30:44.277Z,381.83
2023-04-18T12:33:12.703Z,378.60
2023-04-18T12:35:41.145Z,378.20
2023-04-18T12:38:09.142Z,378.20
2023-04-18T12:40:40.423Z,382.25
2023-04-18T12:43:08.961Z,378.05
2023-04-18T12:45:36.963Z,373.33
2023-04-18T12:48:06.671Z,372.50
2023-04-18T12:50:35.000Z,375.55
2023-04-18T12:53:03.460Z,377.90
2023-04-18T12:55:31.562Z,379.55
2023-04-18T12:57:59.609Z,377.48
2023-04-18T13:00:29.239Z,377.10
2023-04-18T13:02:58.033Z,374.97
2023-04-18T13:05:32.583Z,373.77
2023-04-18T13:08:15.274Z,376.00
2023-04-18T13:10:45.662Z,372.55
2023-04-18T13:13:13.982Z,379.58
2023-04-18T13:15:42.557Z,378.15
2023-04-18T13:18:10.717Z,381.98
2023-04-18T13:20:40.111Z,382.17
2023-04-18T13:23:08.100Z,382.17
2023-04-18T13:25:36.112Z,374.77
2023-04-18T13:28:04.069Z,377.63
2023-04-18T13:30:32.119Z,379.70
2023-04-18T13:33:00.183Z,376.85
2023-04-18T13:35:28.262Z,386.30
2023-04-18T13:37:57.603Z,373.83
2023-04-18T13:40:25.656Z,373.33
2023-04-18T13:42:53.721Z,375.38
2023-04-18T13:45:21.723Z,374.70
2023-04-18T13:47:49.895Z,373.33
2023-04-18T13:50:17.874Z,372.20
2023-04-18T13:52:48.040Z,374.23
2023-04-18T13:55:17.928Z,369.25
2023-04-18T13:57:45.915Z,372.88
2023-04-18T14:00:15.285Z,375.33
2023-04-18T14:02:43.500Z,374.38
2023-04-18T14:05:11.800Z,376.95
2023-04-18T14:07:40.143Z,375.33
2023-04-18T14:10:09.027Z,373.93
2023-04-18T14:12:39.850Z,371.35
2023-04-18T14:15:09.299Z,375.27
2023-04-18T14:17:37.425Z,375.73
2023-04-18T14:20:06.648Z,374.27
2023-04-18T14:22:34.805Z,375.42
2023-04-18T14:25:02.828Z,378.05
2023-04-18T14:27:30.802Z,379.17
2023-04-18T14:30:00.296Z,372.33
2023-04-18T14:32:28.301Z,374.50
2023-04-18T14:34:56.473Z,374.10
2023-04-18T14:37:24.570Z,369.92
2023-04-18T14:39:52.611Z,369.53
2023-04-18T14:42:20.918Z,373.30
2023-04-18T14:44:48.871Z,368.45
2023-04-18T14:47:18.251Z,371.65
2023-04-18T14:49:46.259Z,373.30
2023-04-18T14:52:14.585Z,369.38
2023-04-18T14:54:43.952Z,369.05
2023-04-18T14:57:12.902Z,365.23
2023-04-18T14:59:40.877Z,366.00
2023-04-18T15:02:08.928Z,364.40
2023-04-18T15:04:38.520Z,363.65
2023-04-18T15:07:06.866Z,362.70
2023-04-18T15:09:37.326Z,359.35
2023-04-18T15:12:06.276Z,361.47
2023-04-18T15:14:34.934Z,357.50
2023-04-18T15:17:04.430Z,359.97
2023-04-18T15:19:32.755Z,358.58
2023-04-18T15:22:05.418Z,362.17
2023-04-18T15:24:33.606Z,357.52
2023-04-18T15:27:01.922Z,362.80
2023-04-18T15:29:29.965Z,359.07
2023-04-18T15:31:58.082Z,359.48
2023-04-18T15:34:26.371Z,357.00
2023-04-18T15:36:56.001Z,354.17
2023-04-18T15:39:25.335Z,357.63
2023-04-18T15:41:54.693Z,354.20
2023-04-18T15:44:22.969Z,354.67
2023-04-18T15:46:51.759Z,348.90
2023-04-18T15:49:19.817Z,358.30
2023-04-18T15:51:47.748Z,352.57
2023-04-18T15:54:15.933Z,353.30
2023-04-18T15:56:45.756Z,351.07
2023-04-18T15:59:14.026Z,351.80
2023-04-18T16:01:44.451Z,350.93
2023-04-18T16:04:14.192Z,353.73
2023-04-18T16:06:42.563Z,348.80
2023-04-18T16:09:10.751Z,345.80
2023-04-18T16:11:38.703Z,345.23
2023-04-18T16:14:08.151Z,350.83
2023-04-18T16:16:36.230Z,346.10
2023-04-18T16:19:05.461Z,345.77
2023-04-18T16:21:33.791Z,344.60
2023-04-18T16:24:02.259Z,346.23
2023-04-18T16:26:30.340Z,344.27
2023-04-18T16:28:58.338Z,340.93
2023-04-18T16:31:27.769Z,337.80
2023-04-18T16:33:56.014Z,339.63
2023-04-18T16:36:24.149Z,341.27
2023-04-18T16:38:52.188Z,339.02
2023-04-18T16:41:20.173Z,337.03
2023-04-18T16:43:48.168Z,334.30
2023-04-18T16:46:16.381Z,334.87
2023-04-18T16:48:45.799Z,331.00
2023-04-18T16:51:14.227Z,335.50
2023-04-18T16:53:42.358Z,333.50
2023-04-18T16:56:10.306Z,330.63
2023-04-18T16:58:38.356Z,333.50
2023-04-18T17:01:08.114Z,332.33
2023-04-18T17:03:36.586Z,333.57
2023-04-18T17:06:06.960Z,332.33
2023-04-18T17:08:37.321Z,333.97
2023-04-18T17:11:05.589Z,331.13
2023-04-18T17:13:33.613Z,329.38
2023-04-18T17:16:01.893Z,324.40
2023-04-18T17:18:29.996Z,329.03
2023-04-18T17:20:58.015Z,329.83
2023-04-18T17:23:27.404Z,324.27
2023-04-18T17:25:55.691Z,322.20
2023-04-18T17:28:25.213Z,318.57
2023-04-18T17:30:53.250Z,316.57
2023-04-18T17:33:21.266Z,315.83
2023-04-18T17:35:50.378Z,316.37
2023-04-18T17:38:18.378Z,317.27
2023-04-18T17:40:47.859Z,316.60
2023-04-18T17:43:16.381Z,315.30
2023-04-18T17:45:44.414Z,314.67
2023-04-18T17:48:12.545Z,319.33
2023-04-18T17:50:41.391Z,314.67
2023-04-18T17:53:09.360Z,312.50
2023-04-18T17:55:37.442Z,312.53
2023-04-18T17:58:06.878Z,312.63
2023-04-18T18:00:34.872Z,312.80
2023-04-18T18:03:03.492Z,306.67
2023-04-18T18:05:31.881Z,314.83
2023-04-18T18:08:01.109Z,314.73
2023-04-18T18:10:29.622Z,318.17
2023-04-18T18:12:57.626Z,317.63
2023-04-18T18:15:27.071Z,313.97
2023-04-18T18:17:55.762Z,315.07
2023-04-18T18:20:23.989Z,313.43
2023-04-18T18:22:52.144Z,313.30
2023-04-18T18:25:20.800Z,313.00
2023-04-18T18:27:49.422Z,313.60
2023-04-18T18:30:17.559Z,308.43
2023-04-18T18:32:46.955Z,311.10
2023-04-18T18:35:15.064Z,316.50
2023-04-18T18:37:43.084Z,314.17
2023-04-18T18:40:11.871Z,309.37
2023-04-18T18:42:40.073Z,312.33
2023-04-18T18:45:09.431Z,311.07
2023-04-18T18:47:39.585Z,308.03
2023-04-18T18:50:10.211Z,308.30
2023-04-18T18:52:40.727Z,309.03
2023-04-18T18:55:11.608Z,305.03
2023-04-18T18:57:39.684Z,307.93
2023-04-18T19:00:10.811Z,299.50
2023-04-18T19:02:39.180Z,302.23
2023-04-18T19:05:09.857Z,302.13
2023-04-18T19:07:37.850Z,299.10
2023-04-18T19:10:07.900Z,296.40
2023-04-18T19:12:36.302Z,295.53
2023-04-18T19:15:04.530Z,296.03
2023-04-18T19:17:32.521Z,295.37
2023-04-18T19:20:01.614Z,292.57
2023-04-18T19:22:31.239Z,296.30
2023-04-18T19:25:00.664Z,291.40
2023-04-18T19:27:28.701Z,293.00
2023-04-18T19:29:56.761Z,286.13
2023-04-18T19:32:24.735Z,286.13
2023-04-18T19:34:52.739Z,287.90
2023-04-18T19:37:20.767Z,290.63
2023-04-18T19:39:50.064Z,285.10
2023-04-18T19:42:18.019Z,287.93
2023-04-18T19:44:46.031Z,283.87
2023-04-18T19:47:14.063Z,283.77
2023-04-18T19:49:42.022Z,274.20
2023-04-18T19:52:09.967Z,279.73
2023-04-18T19:54:37.960Z,275.40
2023-04-18T19:57:07.373Z,282.57
2023-04-18T19:59:35.379Z,276.60
2023-04-18T20:02:06.023Z,275.00
2023-04-18T20:04:36.531Z,280.70
2023-04-18T20:07:04.829Z,272.03
2023-04-18T20:09:32.816Z,271.60
2023-04-18T20:12:01.909Z,271.27
2023-04-18T20:14:31.424Z,270.37
2023-04-18T20:16:59.376Z,272.93
2023-04-18T20:19:29.582Z,271.27
2023-04-18T20:21:57.682Z,269.07
2023-04-18T20:24:28.138Z,270.87
2023-04-18T20:26:57.168Z,268.37
2023-04-18T20:29:25.365Z,269.60
2023-04-18T20:31:54.774Z,269.37
2023-04-18T20:34:22.771Z,268.60
2023-04-18T20:36:52.431Z,272.53
2023-04-18T20:39:20.509Z,266.77
2023-04-18T20:41:51.318Z,267.23
2023-04-18T20:44:20.891Z,265.33
2023-04-18T20:46:49.312Z,267.60
2023-04-18T20:49:18.678Z,264.77
2023-04-18T20:51:46.849Z,270.20
2023-04-18T20:54:15.323Z,270.67
2023-04-18T20:56:43.561Z,270.03
2023-04-18T20:59:11.644Z,266.50
2023-04-18T21:01:39.630Z,269.37
2023-04-18T21:04:07.913Z,269.17
2023-04-18T21:06:37.572Z,259.63
2023-04-18T21:09:06.521Z,263.37
2023-04-18T21:11:34.722Z,262.30
2023-04-18T21:14:03.823Z,257.10
2023-04-18T21:16:31.908Z,263.53
2023-04-18T21:18:59.970Z,260.93
2023-04-18T21:21:27.933Z,260.73
2023-04-18T21:23:57.337Z,258.77
2023-04-18T21:26:25.462Z,257.20
2023-04-18T21:28:56.576Z,258.27
2023-04-18T21:31:25.002Z,255.20
2023-04-18T21:33:54.148Z,256.10
2023-04-18T21:36:22.180Z,259.20
2023-04-18T21:38:53.142Z,256.90
2023-04-18T21:41:22.886Z,254.43
2023-04-18T21:43:51.163Z,254.33
2023-04-18T21:46:19.875Z,259.53
2023-04-18T21:48:48.543Z,257.90
2023-04-18T21:51:17.927Z,259.87
2023-04-18T21:53:46.333Z,256.63
2023-04-18T21:56:14.937Z,257.77
2023-04-18T21:58:44.244Z,259.33
2023-04-18T22:01:12.288Z,255.00
2023-04-18T22:03:40.588Z,256.73
2023-04-18T22:06:08.722Z,256.07
2023-04-18T22:08:36.747Z,256.00
2023-04-18T22:11:05.121Z,254.13
2023-04-18T22:13:35.269Z,254.27
2023-04-18T22:16:05.232Z,253.13
2023-04-18T22:18:34.396Z,258.23
2023-04-18T22:21:03.261Z,254.37
2023-04-18T22:23:31.922Z,253.80
2023-04-18T22:25:59.918Z,256.57
2023-04-18T22:28:28.846Z,253.70
2023-04-18T22:30:56.989Z,251.03
2023-04-18T22:33:26.465Z,252.93
2023-04-18T22:35:55.556Z,253.73
2023-04-18T22:38:23.612Z,253.13
2023-04-18T22:40:51.624Z,255.33
2023-04-18T22:43:22.718Z,252.40
2023-04-18T22:45:51.150Z,252.00
2023-04-18T22:48:19.385Z,251.73
2023-04-18T22:50:49.894Z,248.03
2023-04-18T22:53:18.178Z,245.77
2023-04-18T22:55:46.598Z,251.20
2023-04-18T22:58:14.656Z,246.00
2023-04-18T23:00:42.714Z,247.40
2023-04-18T23:03:10.854Z,249.47
2023-04-18T23:05:38.971Z,252.33
2023-04-18T23:08:08.336Z,249.83
2023-04-18T23:10:36.562Z,250.60
2023-04-18T23:13:04.590Z,244.67
2023-04-18T23:15:32.676Z,254.23
2023-04-18T23:18:00.786Z,251.07
2023-04-18T23:20:28.883Z,246.47
2023-04-18T23:22:56.920Z,252.30
2023-04-18T23:25:26.270Z,248.57
2023-04-18T23:27:54.263Z,251.73
2023-04-18T23:30:22.269Z,246.93
2023-04-18T23:32:50.280Z,252.67
2023-04-18T23:35:18.671Z,248.37
2023-04-18T23:37:46.605Z,246.50
2023-04-18T23:40:14.644Z,248.07
2023-04-18T23:42:43.970Z,244.87
2023-04-18T23:45:12.735Z,246.20
2023-04-18T23:47:40.737Z,246.43
2023-04-18T23:50:10.273Z,245.30
2023-04-18T23:52:38.685Z,247.00
2023-04-18T23:55:07.521Z,243.90
2023-04-18T23:57:35.586Z,244.10
